createdAt,value
2023-03-12T00:01:40.423Z,2.28
2023-03-12T00:05:43.292Z,4.40
2023-03-12T00:09:45.841Z,2.20
2023-03-12T00:13:52.461Z,2.22
2023-03-12T00:17:54.276Z,1.55
2023-03-12T00:21:56.122Z,2.17
2023-03-12T00:26:03.182Z,1.60
2023-03-12T00:30:05.959Z,2.45
2023-03-12T00:34:09.189Z,1.80
2023-03-12T00:38:11.117Z,2.85
2023-03-12T00:42:13.096Z,1.75
2023-03-12T00:46:15.082Z,1.60
2023-03-12T00:50:16.972Z,1.88
2023-03-12T00:54:18.866Z,1.40
2023-03-12T00:58:20.699Z,1.95
2023-03-12T01:02:22.777Z,1.70
2023-03-12T01:06:24.608Z,1.55
2023-03-12T01:10:26.493Z,1.55
2023-03-12T01:14:28.334Z,1.75
2023-03-12T01:18:30.103Z,2.15
2023-03-12T01:22:32.071Z,3.33
2023-03-12T01:26:33.847Z,1.83
2023-03-12T01:30:35.651Z,1.58
2023-03-12T01:34:37.439Z,1.55
2023-03-12T01:38:39.305Z,1.40
2023-03-12T01:42:41.082Z,1.52
2023-03-12T01:46:44.587Z,1.50
2023-03-12T01:55:14.405Z,1.60
2023-03-12T01:59:24.877Z,1.75
2023-03-12T02:03:28.804Z,1.70
2023-03-12T02:07:30.679Z,1.70
2023-03-12T02:11:32.646Z,1.80
2023-03-12T02:15:36.301Z,2.10
2023-03-12T02:19:55.361Z,3.13
2023-03-12T02:23:57.547Z,1.88
2023-03-12T02:28:04.992Z,1.52
2023-03-12T02:32:10.129Z,2.28
2023-03-12T02:36:12.304Z,1.60
2023-03-12T02:40:38.126Z,2.00
2023-03-12T02:44:40.269Z,1.80
2023-03-12T02:48:42.257Z,2.20
2023-03-12T02:52:44.002Z,1.80
2023-03-12T02:56:46.300Z,1.88
2023-03-12T03:00:49.048Z,1.92
2023-03-12T03:04:50.963Z,2.30
2023-03-12T03:08:52.861Z,1.60
2023-03-12T03:12:54.699Z,1.95
2023-03-12T03:16:56.644Z,1.88
2023-03-12T03:21:04.709Z,1.98
2023-03-12T03:25:09.617Z,1.70
2023-03-12T03:29:11.468Z,1.40
2023-03-12T03:33:13.301Z,1.67
2023-03-12T03:37:15.323Z,1.52
2023-03-12T03:41:19.028Z,3.05
2023-03-12T03:45:21.500Z,1.50
2023-03-12T03:49:23.986Z,2.28
2023-03-12T03:53:25.977Z,1.70
2023-03-12T03:57:28.036Z,3.05
2023-03-12T04:01:31.477Z,2.28
2023-03-12T04:05:34.114Z,2.10
2023-03-12T04:09:37.060Z,1.70
2023-03-12T04:13:39.580Z,1.90
2023-03-12T04:17:42.477Z,2.03
2023-03-12T04:21:45.271Z,3.25
2023-03-12T04:25:48.346Z,2.72
2023-03-12T04:29:50.776Z,1.95
2023-03-12T04:33:52.989Z,2.05
2023-03-12T04:37:58.338Z,2.25
2023-03-12T04:42:00.770Z,1.90
2023-03-12T04:46:04.596Z,2.53
2023-03-12T04:50:07.104Z,2.08
2023-03-12T04:54:10.004Z,1.80
2023-03-12T04:58:15.251Z,1.70
2023-03-12T05:02:17.762Z,2.40
2023-03-12T05:06:20.770Z,1.70
2023-03-12T05:10:23.301Z,2.03
2023-03-12T05:14:25.616Z,2.38
2023-03-12T05:18:28.534Z,2.30
2023-03-12T05:22:30.925Z,2.75
2023-03-12T05:26:33.626Z,5.25
2023-03-12T05:30:59.246Z,2.53
2023-03-12T05:35:01.488Z,2.15
2023-03-12T05:39:04.262Z,2.92
2023-03-12T05:43:08.471Z,1.95
2023-03-12T05:47:10.910Z,3.47
2023-03-12T05:51:15.420Z,2.13
2023-03-12T05:55:18.477Z,2.10
2023-03-12T05:59:20.893Z,1.92
2023-03-12T06:03:24.025Z,2.08
2023-03-12T06:07:27.622Z,1.98
2023-03-12T06:11:30.396Z,2.00
2023-03-12T06:15:32.770Z,2.00
2023-03-12T06:19:35.330Z,1.90
2023-03-12T06:23:37.889Z,2.55
2023-03-12T06:27:41.135Z,3.00
2023-03-12T06:31:44.181Z,3.28
2023-03-12T06:35:46.070Z,4.10
2023-03-12T06:39:47.992Z,6.50
2023-03-12T06:43:49.786Z,6.68
2023-03-12T06:47:51.515Z,6.03
2023-03-12T06:51:53.900Z,5.93
2023-03-12T06:55:55.679Z,6.53
2023-03-12T06:59:57.470Z,6.85
2023-03-12T07:03:59.267Z,7.97
2023-03-12T07:08:01.389Z,4.60
2023-03-12T07:12:04.254Z,7.75
2023-03-12T07:16:07.066Z,8.38
2023-03-12T07:20:09.612Z,6.75
2023-03-12T07:24:11.368Z,8.95
2023-03-12T07:28:13.417Z,4.95
2023-03-12T07:32:15.589Z,4.47
2023-03-12T07:36:18.002Z,5.25
2023-03-12T07:40:19.884Z,4.95
2023-03-12T07:44:21.916Z,3.70
2023-03-12T07:48:24.179Z,6.72
2023-03-12T07:52:26.429Z,5.07
2023-03-12T07:56:28.965Z,4.75
2023-03-12T08:00:31.269Z,3.95
2023-03-12T08:04:33.213Z,3.42
2023-03-12T08:08:38.425Z,4.40
2023-03-12T08:12:40.331Z,5.63
2023-03-12T08:16:42.239Z,4.60
2023-03-12T08:20:44.136Z,6.25
2023-03-12T08:24:46.425Z,6.40
2023-03-12T08:28:48.242Z,6.57
2023-03-12T08:32:50.208Z,5.00
2023-03-12T08:36:52.035Z,4.18
2023-03-12T08:40:58.022Z,3.83
2023-03-12T08:44:59.770Z,3.13
2023-03-12T08:49:01.543Z,4.93
2023-03-12T08:53:03.361Z,5.38
2023-03-12T08:57:05.143Z,6.18
2023-03-12T09:01:11.690Z,5.55
2023-03-12T09:05:14.313Z,4.72
2023-03-12T09:09:16.133Z,3.72
2023-03-12T09:13:18.006Z,5.20
2023-03-12T09:17:19.786Z,6.90
2023-03-12T09:21:22.028Z,5.70
2023-03-12T09:25:23.838Z,6.43
2023-03-12T09:29:25.797Z,5.20
2023-03-12T09:33:27.556Z,6.60
2023-03-12T09:37:29.499Z,8.57
2023-03-12T09:41:35.782Z,6.53
2023-03-12T09:45:42.208Z,6.13
2023-03-12T09:49:51.219Z,7.95
2023-03-12T09:54:00.198Z,6.35
2023-03-12T09:58:01.953Z,6.25
2023-03-12T10:02:22.636Z,4.53
2023-03-12T10:06:29.938Z,4.43
2023-03-12T10:10:45.218Z,4.90
2023-03-12T10:15:11.849Z,4.18
2023-03-12T10:19:22.060Z,5.32
2023-03-12T10:23:38.803Z,4.35
2023-03-12T10:27:41.231Z,3.83
2023-03-12T10:31:59.397Z,3.85
2023-03-12T10:36:01.338Z,4.15
2023-03-12T10:40:06.036Z,2.72
2023-03-12T10:44:09.272Z,5.85
2023-03-12T10:48:18.805Z,4.57
2023-03-12T10:52:23.387Z,4.38
2023-03-12T10:56:25.211Z,5.28
2023-03-12T11:00:30.297Z,4.20
2023-03-12T11:04:33.033Z,3.47
2023-03-12T11:08:36.871Z,5.25
2023-03-12T11:12:40.101Z,5.30
2023-03-12T11:16:41.961Z,8.05
2023-03-12T11:20:43.772Z,9.00
2023-03-12T11:25:06.933Z,5.85
2023-03-12T11:29:27.598Z,7.43
2023-03-12T11:33:29.526Z,6.78
2023-03-12T11:37:40.537Z,8.68
2023-03-12T11:42:06.795Z,7.63
2023-03-12T11:46:17.514Z,7.65
2023-03-12T11:51:00.623Z,6.90
2023-03-12T11:55:02.315Z,8.30
2023-03-12T11:59:21.448Z,6.95
2023-03-12T12:03:38.434Z,6.45
2023-03-12T12:07:56.021Z,5.65
2023-03-12T12:12:17.876Z,8.35
2023-03-12T12:16:19.888Z,7.38
2023-03-12T12:20:51.849Z,8.43
2023-03-12T12:25:21.286Z,5.88
2023-03-12T12:29:44.568Z,7.38
2023-03-12T12:34:02.043Z,5.35
2023-03-12T12:42:21.856Z,5.38
2023-03-12T12:46:32.516Z,2.40
2023-03-12T12:50:38.459Z,4.13
2023-03-12T12:54:49.254Z,4.03
2023-03-12T12:59:15.406Z,4.72
2023-03-12T13:03:22.617Z,5.28
2023-03-12T13:07:27.180Z,5.95
2023-03-12T13:11:44.023Z,3.72
2023-03-12T13:15:46.443Z,4.65
2023-03-12T13:20:00.835Z,4.57
2023-03-12T13:24:22.009Z,3.67
2023-03-12T13:28:26.625Z,4.00
2023-03-12T13:32:34.618Z,5.30
2023-03-12T13:36:37.644Z,3.35
2023-03-12T13:40:54.723Z,3.72
2023-03-12T13:45:21.745Z,5.05
2023-03-12T13:49:25.155Z,5.43
2023-03-12T13:53:37.650Z,4.13
2023-03-12T13:57:55.575Z,6.07
2023-03-12T14:02:02.306Z,4.90
2023-03-12T14:06:12.321Z,3.95
2023-03-12T14:10:26.033Z,5.65
2023-03-12T14:14:33.899Z,3.40
2023-03-12T14:18:39.545Z,5.80
2023-03-12T14:22:45.267Z,3.72
2023-03-12T14:26:47.219Z,4.75
2023-03-12T14:31:09.475Z,3.70
2023-03-12T14:35:18.341Z,5.43
2023-03-12T14:39:32.324Z,5.15
2023-03-12T14:43:35.234Z,4.53
2023-03-12T14:47:45.474Z,6.47
2023-03-12T14:51:48.415Z,6.28
2023-03-12T14:56:14.984Z,7.18
2023-03-12T15:00:27.025Z,5.65
2023-03-12T15:04:31.167Z,5.18
2023-03-12T15:08:39.663Z,3.30
2023-03-12T15:12:46.161Z,4.00
2023-03-12T15:16:48.720Z,4.22
2023-03-12T15:20:51.734Z,3.97
2023-03-12T15:24:54.003Z,2.20
2023-03-12T15:29:03.657Z,2.65
2023-03-12T15:33:18.718Z,3.95
2023-03-12T15:37:38.388Z,2.92
2023-03-12T15:41:44.038Z,3.08
2023-03-12T15:45:46.571Z,3.67
2023-03-12T15:50:07.400Z,5.78
2023-03-12T15:54:18.180Z,5.47
2023-03-12T15:58:33.989Z,2.28
2023-03-12T16:02:46.240Z,3.17
2023-03-12T16:06:53.346Z,5.18
2023-03-12T16:14:59.898Z,2.78
2023-03-12T16:19:01.744Z,5.30
2023-03-12T16:23:03.748Z,7.45
2023-03-12T16:27:07.158Z,5.90
2023-03-12T16:31:16.178Z,8.27
2023-03-12T16:35:19.700Z,5.38
2023-03-12T16:39:21.466Z,4.75
2023-03-12T16:43:25.316Z,4.78
2023-03-12T16:47:27.686Z,5.90
2023-03-12T16:51:29.470Z,5.85
2023-03-12T16:55:48.133Z,6.38
2023-03-12T16:59:50.350Z,8.95
2023-03-12T17:03:53.317Z,12.52
2023-03-12T17:07:56.613Z,10.98
2023-03-12T17:11:58.867Z,10.30
2023-03-12T17:16:00.702Z,7.28
2023-03-12T17:20:07.169Z,7.53
2023-03-12T17:24:11.191Z,8.25
2023-03-12T17:28:14.392Z,6.32
2023-03-12T17:32:16.436Z,8.45
2023-03-12T17:36:18.980Z,6.60
2023-03-12T17:40:20.731Z,5.35
2023-03-12T17:44:22.579Z,7.57
2023-03-12T17:48:25.318Z,9.13
2023-03-12T17:52:27.278Z,9.10
2023-03-12T17:56:29.210Z,9.98
2023-03-12T18:00:30.987Z,9.30
2023-03-12T18:04:33.016Z,7.95
2023-03-12T18:08:34.873Z,8.30
2023-03-12T18:12:38.132Z,10.32
2023-03-12T18:16:39.904Z,12.10
2023-03-12T18:20:44.008Z,13.13
2023-03-12T18:24:45.720Z,7.90
2023-03-12T18:28:49.297Z,8.07
2023-03-12T18:32:51.072Z,5.57
2023-03-12T18:36:52.855Z,7.22
2023-03-12T18:41:09.042Z,5.07
2023-03-12T18:45:12.217Z,3.97
2023-03-12T18:49:14.099Z,6.60
2023-03-12T18:53:17.222Z,6.60
2023-03-12T18:57:18.975Z,8.23
2023-03-12T19:01:21.023Z,8.07
2023-03-12T19:05:23.053Z,5.30
2023-03-12T19:09:24.876Z,5.43
2023-03-12T19:13:26.620Z,4.35
2023-03-12T19:17:29.309Z,4.60
2023-03-12T19:21:31.263Z,6.20
2023-03-12T19:25:33.082Z,3.10
2023-03-12T19:29:34.803Z,3.63
2023-03-12T19:33:36.640Z,7.50
2023-03-12T19:37:38.470Z,7.00
2023-03-12T19:41:40.780Z,3.42
2023-03-12T19:45:42.560Z,2.80
2023-03-12T19:49:44.387Z,3.33
2023-03-12T19:53:46.146Z,6.18
2023-03-12T19:57:47.929Z,3.75
2023-03-12T20:01:49.739Z,3.55
2023-03-12T20:05:51.680Z,6.53
2023-03-12T20:09:53.480Z,7.35
2023-03-12T20:13:55.334Z,12.85
2023-03-12T20:17:58.398Z,10.63
2023-03-12T20:22:00.175Z,9.38
2023-03-12T20:26:02.024Z,6.03
2023-03-12T20:30:04.738Z,7.70
2023-03-12T20:34:06.467Z,7.32
2023-03-12T20:38:08.378Z,6.97
2023-03-12T20:42:10.102Z,4.80
2023-03-12T20:46:12.941Z,4.55
2023-03-12T20:50:14.778Z,5.13
2023-03-12T20:54:16.496Z,7.65
2023-03-12T20:58:18.325Z,7.30
2023-03-12T21:02:20.228Z,12.63
2023-03-12T21:06:22.072Z,10.05
2023-03-12T21:10:24.338Z,8.02
2023-03-12T21:14:26.137Z,8.07
2023-03-12T21:18:29.029Z,7.40
2023-03-12T21:22:31.975Z,5.22
2023-03-12T21:26:33.796Z,5.15
2023-03-12T21:30:35.769Z,5.45
2023-03-12T21:34:38.283Z,5.32
2023-03-12T21:38:42.744Z,5.93
2023-03-12T21:42:44.563Z,4.93
2023-03-12T21:46:46.402Z,4.70
2023-03-12T21:50:48.166Z,6.90
2023-03-12T21:54:50.100Z,5.00
2023-03-12T21:58:51.981Z,8.50
2023-03-12T22:02:53.787Z,9.50
2023-03-12T22:06:56.692Z,12.50
2023-03-12T22:10:58.544Z,8.88
2023-03-12T22:15:00.318Z,9.85
2023-03-12T22:19:02.084Z,6.18
2023-03-12T22:23:03.925Z,6.63
2023-03-12T22:27:07.484Z,5.25
2023-03-12T22:31:10.027Z,3.70
2023-03-12T22:35:11.890Z,3.38
2023-03-12T22:39:13.689Z,3.63
2023-03-12T22:43:15.787Z,6.07
2023-03-12T22:47:17.567Z,5.60
2023-03-12T22:51:19.391Z,5.97
2023-03-12T22:55:21.116Z,4.43
2023-03-12T22:59:22.929Z,5.10
2023-03-12T23:03:24.804Z,4.40
2023-03-12T23:07:26.593Z,8.25
2023-03-12T23:11:29.626Z,8.98
2023-03-12T23:15:40.434Z,4.97
2023-03-12T23:19:43.555Z,7.38
2023-03-12T23:23:45.824Z,5.20
2023-03-12T23:27:47.614Z,4.72
2023-03-12T23:31:49.406Z,3.90
2023-03-12T23:36:03.419Z,3.67
2023-03-12T23:40:06.587Z,4.05
2023-03-12T23:44:08.338Z,3.65
2023-03-12T23:48:10.399Z,3.30
2023-03-12T23:52:12.207Z,3.15
2023-03-12T23:56:16.812Z,6.15
